sensor_id;sensor_type;location;lat;lon;timestamp;temperature;humidity
78904;DHT22;68291;49.602;8.722;2023-04-24T00:01:49;14.30;99.90
78904;DHT22;68291;49.602;8.722;2023-04-24T00:04:22;14.30;99.90
78904;DHT22;68291;49.602;8.722;2023-04-24T00:07:08;14.30;99.90
78904;DHT22;68291;49.602;8.722;2023-04-24T00:09:39;14.40;99.90
78904;DHT22;68291;49.602;8.722;2023-04-24T00:12:10;14.40;99.90
78904;DHT22;68291;49.602;8.722;2023-04-24T00:15:00;14.40;99.90
78904;DHT22;68291;49.602;8.722;2023-04-24T00:17:50;14.40;99.90
78904;DHT22;68291;49.602;8.722;2023-04-24T00:20:46;14.40;99.90
78904;DHT22;68291;49.602;8.722;2023-04-24T00:23:28;14.40;99.90
78904;DHT22;68291;49.602;8.722;2023-04-24T00:26:07;14.40;99.90
78904;DHT22;68291;49.602;8.722;2023-04-24T00:28:40;14.40;99.90
78904;DHT22;68291;49.602;8.722;2023-04-24T00:31:45;14.40;99.90
78904;DHT22;68291;49.602;8.722;2023-04-24T00:34:23;14.40;99.90
78904;DHT22;68291;49.602;8.722;2023-04-24T00:37:08;14.40;99.90
78904;DHT22;68291;49.602;8.722;2023-04-24T00:39:40;14.40;99.90
78904;DHT22;68291;49.602;8.722;2023-04-24T00:42:36;14.40;99.90
78904;DHT22;68291;49.602;8.722;2023-04-24T00:45:12;14.40;99.90
78904;DHT22;68291;49.602;8.722;2023-04-24T00:47:53;14.40;99.90
78904;DHT22;68291;49.602;8.722;2023-04-24T00:50:36;14.40;99.90
78904;DHT22;68291;49.602;8.722;2023-04-24T00:53:25;14.40;99.90
78904;DHT22;68291;49.602;8.722;2023-04-24T00:55:58;14.40;99.90
78904;DHT22;68291;49.602;8.722;2023-04-24T00:58:39;14.40;99.90
78904;DHT22;68291;49.602;8.722;2023-04-24T01:01:21;14.40;99.90
78904;DHT22;68291;49.602;8.722;2023-04-24T01:04:09;14.40;99.90
78904;DHT22;68291;49.602;8.722;2023-04-24T01:07:03;14.40;99.90
78904;DHT22;68291;49.602;8.722;2023-04-24T01:09:53;14.40;99.90
78904;DHT22;68291;49.602;8.722;2023-04-24T01:12:25;14.40;99.90
78904;DHT22;68291;49.602;8.722;2023-04-24T01:15:09;14.40;99.90
78904;DHT22;68291;49.602;8.722;2023-04-24T01:17:47;14.40;99.90
78904;DHT22;68291;49.602;8.722;2023-04-24T01:20:47;14.40;99.90
78904;DHT22;68291;49.602;8.722;2023-04-24T01:23:43;14.50;99.90
78904;DHT22;68291;49.602;8.722;2023-04-24T01:26:34;14.50;99.90
78904;DHT22;68291;49.602;8.722;2023-04-24T01:29:09;14.50;99.90
78904;DHT22;68291;49.602;8.722;2023-04-24T01:31:46;14.50;99.90
78904;DHT22;68291;49.602;8.722;2023-04-24T01:34:32;14.50;99.90
78904;DHT22;68291;49.602;8.722;2023-04-24T01:37:22;14.50;99.90
78904;DHT22;68291;49.602;8.722;2023-04-24T01:40:33;14.50;99.90
78904;DHT22;68291;49.602;8.722;2023-04-24T01:43:18;14.50;99.90
78904;DHT22;68291;49.602;8.722;2023-04-24T01:45:53;14.40;99.90
78904;DHT22;68291;49.602;8.722;2023-04-24T01:48:27;14.50;99.90
78904;DHT22;68291;49.602;8.722;2023-04-24T01:51:03;14.50;99.90
78904;DHT22;68291;49.602;8.722;2023-04-24T01:53:49;14.50;99.90
78904;DHT22;68291;49.602;8.722;2023-04-24T01:56:42;14.50;99.90
78904;DHT22;68291;49.602;8.722;2023-04-24T01:59:24;14.50;99.90
78904;DHT22;68291;49.602;8.722;2023-04-24T02:02:02;14.50;99.90
78904;DHT22;68291;49.602;8.722;2023-04-24T02:04:59;14.50;99.90
78904;DHT22;68291;49.602;8.722;2023-04-24T02:07:37;14.50;99.90
78904;DHT22;68291;49.602;8.722;2023-04-24T02:10:21;14.50;99.90
78904;DHT22;68291;49.602;8.722;2023-04-24T02:12:59;14.50;99.90
78904;DHT22;68291;49.602;8.722;2023-04-24T02:15:41;14.50;99.90
78904;DHT22;68291;49.602;8.722;2023-04-24T02:18:26;14.50;99.90
78904;DHT22;68291;49.602;8.722;2023-04-24T02:20:57;14.50;99.90
78904;DHT22;68291;49.602;8.722;2023-04-24T02:23:28;14.50;99.90
78904;DHT22;68291;49.602;8.722;2023-04-24T02:26:16;14.50;99.90
78904;DHT22;68291;49.602;8.722;2023-04-24T02:32:33;14.50;99.90
78904;DHT22;68291;49.602;8.722;2023-04-24T02:35:14;14.50;99.90
78904;DHT22;68291;49.602;8.722;2023-04-24T02:37:57;14.40;99.90
78904;DHT22;68291;49.602;8.722;2023-04-24T02:40:44;14.40;99.90
78904;DHT22;68291;49.602;8.722;2023-04-24T02:43:18;14.40;99.90
78904;DHT22;68291;49.602;8.722;2023-04-24T02:45:55;14.40;99.90
78904;DHT22;68291;49.602;8.722;2023-04-24T02:48:26;14.30;99.90
78904;DHT22;68291;49.602;8.722;2023-04-24T02:51:17;14.30;99.90
78904;DHT22;68291;49.602;8.722;2023-04-24T02:53:56;14.20;99.90
78904;DHT22;68291;49.602;8.722;2023-04-24T02:56:42;14.10;99.90
78904;DHT22;68291;49.602;8.722;2023-04-24T02:59:14;13.90;99.90
78904;DHT22;68291;49.602;8.722;2023-04-24T03:02:13;13.70;99.90
78904;DHT22;68291;49.602;8.722;2023-04-24T03:04:46;13.60;99.90
78904;DHT22;68291;49.602;8.722;2023-04-24T03:07:32;13.50;99.90
78904;DHT22;68291;49.602;8.722;2023-04-24T03:10:12;13.40;99.90
78904;DHT22;68291;49.602;8.722;2023-04-24T03:12:45;13.20;99.90
78904;DHT22;68291;49.602;8.722;2023-04-24T03:15:33;13.20;99.90
78904;DHT22;68291;49.602;8.722;2023-04-24T03:18:17;13.10;99.90
78904;DHT22;68291;49.602;8.722;2023-04-24T03:20:53;13.00;99.90
78904;DHT22;68291;49.602;8.722;2023-04-24T03:23:25;12.90;99.90
78904;DHT22;68291;49.602;8.722;2023-04-24T03:25:56;12.80;99.90
78904;DHT22;68291;49.602;8.722;2023-04-24T03:28:42;12.80;99.90
78904;DHT22;68291;49.602;8.722;2023-04-24T03:31:14;12.70;99.90
78904;DHT22;68291;49.602;8.722;2023-04-24T03:34:16;12.70;99.90
78904;DHT22;68291;49.602;8.722;2023-04-24T03:36:50;12.60;99.90
78904;DHT22;68291;49.602;8.722;2023-04-24T03:39:26;12.60;99.90
78904;DHT22;68291;49.602;8.722;2023-04-24T03:42:11;12.60;99.90
78904;DHT22;68291;49.602;8.722;2023-04-24T03:44:54;12.60;99.90
78904;DHT22;68291;49.602;8.722;2023-04-24T03:47:54;12.60;99.90
78904;DHT22;68291;49.602;8.722;2023-04-24T03:50:44;12.60;99.90
78904;DHT22;68291;49.602;8.722;2023-04-24T03:53:39;12.60;99.90
78904;DHT22;68291;49.602;8.722;2023-04-24T03:56:12;12.60;99.90
78904;DHT22;68291;49.602;8.722;2023-04-24T03:59:13;12.60;99.90
78904;DHT22;68291;49.602;8.722;2023-04-24T04:01:48;12.60;99.90
78904;DHT22;68291;49.602;8.722;2023-04-24T04:04:39;12.60;99.90
78904;DHT22;68291;49.602;8.722;2023-04-24T04:07:18;12.60;99.90
78904;DHT22;68291;49.602;8.722;2023-04-24T04:09:51;12.50;99.90
78904;DHT22;68291;49.602;8.722;2023-04-24T04:12:32;12.50;99.90
78904;DHT22;68291;49.602;8.722;2023-04-24T04:15:09;12.40;99.90
78904;DHT22;68291;49.602;8.722;2023-04-24T04:17:50;12.40;99.90
78904;DHT22;68291;49.602;8.722;2023-04-24T04:20:22;12.40;99.90
78904;DHT22;68291;49.602;8.722;2023-04-24T04:23:17;12.30;99.90
78904;DHT22;68291;49.602;8.722;2023-04-24T04:26:20;12.30;99.90
78904;DHT22;68291;49.602;8.722;2023-04-24T04:29:20;12.20;99.90
78904;DHT22;68291;49.602;8.722;2023-04-24T04:32:07;12.20;99.90
78904;DHT22;68291;49.602;8.722;2023-04-24T04:34:45;12.10;99.90
78904;DHT22;68291;49.602;8.722;2023-04-24T04:37:20;12.00;99.90
78904;DHT22;68291;49.602;8.722;2023-04-24T04:40:12;12.00;99.90
78904;DHT22;68291;49.602;8.722;2023-04-24T04:42:51;11.90;99.90
78904;DHT22;68291;49.602;8.722;2023-04-24T04:45:24;11.80;99.90
78904;DHT22;68291;49.602;8.722;2023-04-24T04:48:33;11.80;99.90
78904;DHT22;68291;49.602;8.722;2023-04-24T04:51:08;11.70;99.90
78904;DHT22;68291;49.602;8.722;2023-04-24T04:53:49;11.70;99.90
78904;DHT22;68291;49.602;8.722;2023-04-24T04:56:57;11.60;99.90
78904;DHT22;68291;49.602;8.722;2023-04-24T04:59:44;11.60;99.90
78904;DHT22;68291;49.602;8.722;2023-04-24T05:02:26;11.60;99.90
78904;DHT22;68291;49.602;8.722;2023-04-24T05:05:13;11.50;99.90
78904;DHT22;68291;49.602;8.722;2023-04-24T05:07:53;11.50;99.90
78904;DHT22;68291;49.602;8.722;2023-04-24T05:10:33;11.50;99.90
78904;DHT22;68291;49.602;8.722;2023-04-24T05:13:20;11.50;99.90
78904;DHT22;68291;49.602;8.722;2023-04-24T05:16:13;11.50;99.90
78904;DHT22;68291;49.602;8.722;2023-04-24T05:19:09;11.50;99.90
78904;DHT22;68291;49.602;8.722;2023-04-24T05:21:47;11.50;99.90
78904;DHT22;68291;49.602;8.722;2023-04-24T05:24:24;11.50;99.90
78904;DHT22;68291;49.602;8.722;2023-04-24T05:27:37;11.50;99.90
78904;DHT22;68291;49.602;8.722;2023-04-24T05:30:21;11.50;99.90
78904;DHT22;68291;49.602;8.722;2023-04-24T05:32:59;11.60;99.90
78904;DHT22;68291;49.602;8.722;2023-04-24T05:35:47;11.60;99.90
78904;DHT22;68291;49.602;8.722;2023-04-24T05:38:44;11.70;99.90
78904;DHT22;68291;49.602;8.722;2023-04-24T05:41:16;11.70;99.90
78904;DHT22;68291;49.602;8.722;2023-04-24T05:43:48;11.80;99.90
78904;DHT22;68291;49.602;8.722;2023-04-24T05:46:45;11.90;99.90
78904;DHT22;68291;49.602;8.722;2023-04-24T05:49:42;11.90;99.90
78904;DHT22;68291;49.602;8.722;2023-04-24T05:52:13;12.00;99.90
78904;DHT22;68291;49.602;8.722;2023-04-24T05:54:48;12.10;99.90
78904;DHT22;68291;49.602;8.722;2023-04-24T05:57:35;12.10;99.90
78904;DHT22;68291;49.602;8.722;2023-04-24T06:00:15;12.10;99.90
78904;DHT22;68291;49.602;8.722;2023-04-24T06:03:15;12.20;99.90
78904;DHT22;68291;49.602;8.722;2023-04-24T06:05:57;12.20;99.90
78904;DHT22;68291;49.602;8.722;2023-04-24T06:08:39;12.30;99.90
78904;DHT22;68291;49.602;8.722;2023-04-24T06:11:20;12.30;99.90
78904;DHT22;68291;49.602;8.722;2023-04-24T06:13:51;12.40;99.90
78904;DHT22;68291;49.602;8.722;2023-04-24T06:16:46;12.40;99.90
78904;DHT22;68291;49.602;8.722;2023-04-24T06:19:56;12.50;99.90
78904;DHT22;68291;49.602;8.722;2023-04-24T06:22:28;12.50;99.90
78904;DHT22;68291;49.602;8.722;2023-04-24T06:25:14;12.60;99.90
78904;DHT22;68291;49.602;8.722;2023-04-24T06:27:45;12.70;99.90
78904;DHT22;68291;49.602;8.722;2023-04-24T06:30:18;12.70;99.90
78904;DHT22;68291;49.602;8.722;2023-04-24T06:32:52;12.70;99.90
78904;DHT22;68291;49.602;8.722;2023-04-24T06:35:51;12.70;99.90
78904;DHT22;68291;49.602;8.722;2023-04-24T06:38:40;12.80;99.90
78904;DHT22;68291;49.602;8.722;2023-04-24T06:41:17;12.80;99.90
78904;DHT22;68291;49.602;8.722;2023-04-24T06:44:08;12.80;99.90
78904;DHT22;68291;49.602;8.722;2023-04-24T06:46:58;12.80;99.90
78904;DHT22;68291;49.602;8.722;2023-04-24T06:49:29;12.80;99.90
78904;DHT22;68291;49.602;8.722;2023-04-24T06:52:26;12.70;99.90
78904;DHT22;68291;49.602;8.722;2023-04-24T06:55:21;12.70;99.90
78904;DHT22;68291;49.602;8.722;2023-04-24T06:57:57;12.70;99.90
78904;DHT22;68291;49.602;8.722;2023-04-24T07:00:42;12.70;99.90
78904;DHT22;68291;49.602;8.722;2023-04-24T07:03:26;12.70;99.90
78904;DHT22;68291;49.602;8.722;2023-04-24T07:06:05;12.70;99.90
78904;DHT22;68291;49.602;8.722;2023-04-24T07:09:05;12.60;99.90
78904;DHT22;68291;49.602;8.722;2023-04-24T07:11:52;12.70;99.90
78904;DHT22;68291;49.602;8.722;2023-04-24T07:14:27;12.60;99.90
78904;DHT22;68291;49.602;8.722;2023-04-24T07:17:08;12.60;99.90
78904;DHT22;68291;49.602;8.722;2023-04-24T07:19:44;12.60;99.90
78904;DHT22;68291;49.602;8.722;2023-04-24T07:22:18;12.60;99.90
78904;DHT22;68291;49.602;8.722;2023-04-24T07:24:54;12.60;99.90
78904;DHT22;68291;49.602;8.722;2023-04-24T07:27:41;12.70;99.90
78904;DHT22;68291;49.602;8.722;2023-04-24T07:30:16;12.70;99.90
78904;DHT22;68291;49.602;8.722;2023-04-24T07:32:46;12.70;99.90
78904;DHT22;68291;49.602;8.722;2023-04-24T07:35:17;12.80;99.90
78904;DHT22;68291;49.602;8.722;2023-04-24T07:37:54;12.80;99.90
78904;DHT22;68291;49.602;8.722;2023-04-24T07:40:46;12.80;99.90
78904;DHT22;68291;49.602;8.722;2023-04-24T07:43:44;12.80;99.90
78904;DHT22;68291;49.602;8.722;2023-04-24T07:46:24;12.80;99.90
78904;DHT22;68291;49.602;8.722;2023-04-24T07:49:02;12.90;99.90
78904;DHT22;68291;49.602;8.722;2023-04-24T07:51:41;12.90;99.90
78904;DHT22;68291;49.602;8.722;2023-04-24T07:54:19;13.00;99.90
78904;DHT22;68291;49.602;8.722;2023-04-24T07:57:09;13.00;99.90
78904;DHT22;68291;49.602;8.722;2023-04-24T08:00:09;13.10;99.90
78904;DHT22;68291;49.602;8.722;2023-04-24T08:03:14;13.10;99.90
78904;DHT22;68291;49.602;8.722;2023-04-24T08:05:48;13.10;99.90
78904;DHT22;68291;49.602;8.722;2023-04-24T08:08:30;13.10;99.90
78904;DHT22;68291;49.602;8.722;2023-04-24T08:11:01;13.20;99.90
78904;DHT22;68291;49.602;8.722;2023-04-24T08:13:55;13.20;99.90
78904;DHT22;68291;49.602;8.722;2023-04-24T08:16:27;13.20;99.90
78904;DHT22;68291;49.602;8.722;2023-04-24T08:19:18;13.30;99.90
78904;DHT22;68291;49.602;8.722;2023-04-24T08:22:00;13.40;99.90
78904;DHT22;68291;49.602;8.722;2023-04-24T08:24:52;13.50;99.90
78904;DHT22;68291;49.602;8.722;2023-04-24T08:27:36;13.50;99.90
78904;DHT22;68291;49.602;8.722;2023-04-24T08:33:31;13.50;99.90
78904;DHT22;68291;49.602;8.722;2023-04-24T08:36:06;13.50;99.90
78904;DHT22;68291;49.602;8.722;2023-04-24T08:38:50;13.50;99.90
78904;DHT22;68291;49.602;8.722;2023-04-24T08:41:27;13.50;99.90
78904;DHT22;68291;49.602;8.722;2023-04-24T08:44:01;13.60;99.90
78904;DHT22;68291;49.602;8.722;2023-04-24T08:46:50;13.60;99.90
78904;DHT22;68291;49.602;8.722;2023-04-24T08:49:27;13.60;99.90
78904;DHT22;68291;49.602;8.722;2023-04-24T08:52:13;13.70;99.90
78904;DHT22;68291;49.602;8.722;2023-04-24T08:54:53;13.80;99.90
78904;DHT22;68291;49.602;8.722;2023-04-24T08:57:36;13.80;99.90
78904;DHT22;68291;49.602;8.722;2023-04-24T09:00:19;13.90;99.90
78904;DHT22;68291;49.602;8.722;2023-04-24T09:03:24;14.00;99.90
78904;DHT22;68291;49.602;8.722;2023-04-24T09:06:12;14.10;99.90
78904;DHT22;68291;49.602;8.722;2023-04-24T09:08:45;14.10;99.90
78904;DHT22;68291;49.602;8.722;2023-04-24T09:11:31;14.10;99.90
78904;DHT22;68291;49.602;8.722;2023-04-24T09:14:07;14.10;99.90
78904;DHT22;68291;49.602;8.722;2023-04-24T09:17:02;14.00;99.90
78904;DHT22;68291;49.602;8.722;2023-04-24T09:19:59;14.00;99.90
78904;DHT22;68291;49.602;8.722;2023-04-24T09:22:48;14.00;99.90
78904;DHT22;68291;49.602;8.722;2023-04-24T09:25:35;13.90;99.90
78904;DHT22;68291;49.602;8.722;2023-04-24T09:28:09;13.90;99.90
78904;DHT22;68291;49.602;8.722;2023-04-24T09:31:05;13.80;99.90
78904;DHT22;68291;49.602;8.722;2023-04-24T09:33:38;13.80;99.90
78904;DHT22;68291;49.602;8.722;2023-04-24T09:36:39;13.80;99.90
78904;DHT22;68291;49.602;8.722;2023-04-24T09:39:33;13.80;99.90
78904;DHT22;68291;49.602;8.722;2023-04-24T09:42:04;13.80;99.90
78904;DHT22;68291;49.602;8.722;2023-04-24T09:44:36;13.80;99.90
78904;DHT22;68291;49.602;8.722;2023-04-24T09:47:27;13.80;99.90
78904;DHT22;68291;49.602;8.722;2023-04-24T09:50:24;13.80;99.90
78904;DHT22;68291;49.602;8.722;2023-04-24T09:53:25;13.70;99.90
78904;DHT22;68291;49.602;8.722;2023-04-24T09:56:11;13.70;99.90
78904;DHT22;68291;49.602;8.722;2023-04-24T09:59:04;13.60;99.90
78904;DHT22;68291;49.602;8.722;2023-04-24T10:01:51;13.60;99.90
78904;DHT22;68291;49.602;8.722;2023-04-24T10:04:31;13.60;99.90
78904;DHT22;68291;49.602;8.722;2023-04-24T10:07:15;13.50;99.90
78904;DHT22;68291;49.602;8.722;2023-04-24T10:09:52;13.50;99.90
78904;DHT22;68291;49.602;8.722;2023-04-24T10:12:38;13.50;99.90
78904;DHT22;68291;49.602;8.722;2023-04-24T10:15:19;13.50;99.90
78904;DHT22;68291;49.602;8.722;2023-04-24T10:18:12;13.50;99.90
78904;DHT22;68291;49.602;8.722;2023-04-24T10:21:07;13.50;99.90
78904;DHT22;68291;49.602;8.722;2023-04-24T10:23:57;13.40;99.90
78904;DHT22;68291;49.602;8.722;2023-04-24T10:30:01;13.40;99.90
78904;DHT22;68291;49.602;8.722;2023-04-24T10:32:33;13.40;99.90
78904;DHT22;68291;49.602;8.722;2023-04-24T10:35:19;13.40;99.90
78904;DHT22;68291;49.602;8.722;2023-04-24T10:38:15;13.50;99.90
78904;DHT22;68291;49.602;8.722;2023-04-24T10:40:58;13.60;99.90
78904;DHT22;68291;49.602;8.722;2023-04-24T10:44:08;13.70;99.90
78904;DHT22;68291;49.602;8.722;2023-04-24T10:47:04;13.80;99.90
78904;DHT22;68291;49.602;8.722;2023-04-24T10:49:51;13.90;99.90
78904;DHT22;68291;49.602;8.722;2023-04-24T10:52:44;14.00;99.90
78904;DHT22;68291;49.602;8.722;2023-04-24T10:55:51;14.10;99.90
78904;DHT22;68291;49.602;8.722;2023-04-24T10:58:41;14.10;99.90
78904;DHT22;68291;49.602;8.722;2023-04-24T11:01:28;14.10;99.90
78904;DHT22;68291;49.602;8.722;2023-04-24T11:04:30;14.10;99.90
78904;DHT22;68291;49.602;8.722;2023-04-24T11:07:12;14.00;99.90
78904;DHT22;68291;49.602;8.722;2023-04-24T11:09:59;13.90;99.90
78904;DHT22;68291;49.602;8.722;2023-04-24T11:12:35;13.90;99.90
78904;DHT22;68291;49.602;8.722;2023-04-24T11:15:14;13.90;99.90
78904;DHT22;68291;49.602;8.722;2023-04-24T11:18:13;13.80;99.90
78904;DHT22;68291;49.602;8.722;2023-04-24T11:21:10;13.80;99.90
78904;DHT22;68291;49.602;8.722;2023-04-24T11:24:00;13.80;99.90
78904;DHT22;68291;49.602;8.722;2023-04-24T11:27:05;13.80;99.90
78904;DHT22;68291;49.602;8.722;2023-04-24T11:29:46;13.80;99.90
78904;DHT22;68291;49.602;8.722;2023-04-24T11:32:24;13.70;99.90
78904;DHT22;68291;49.602;8.722;2023-04-24T11:35:35;13.70;99.90
78904;DHT22;68291;49.602;8.722;2023-04-24T11:38:23;13.70;99.90
78904;DHT22;68291;49.602;8.722;2023-04-24T11:41:13;13.70;99.90
78904;DHT22;68291;49.602;8.722;2023-04-24T11:43:44;13.70;99.90
78904;DHT22;68291;49.602;8.722;2023-04-24T11:46:34;13.80;99.90
78904;DHT22;68291;49.602;8.722;2023-04-24T11:49:06;13.80;99.90
78904;DHT22;68291;49.602;8.722;2023-04-24T11:52:06;13.90;99.90
78904;DHT22;68291;49.602;8.722;2023-04-24T11:54:48;14.00;99.90
78904;DHT22;68291;49.602;8.722;2023-04-24T11:57:34;14.10;99.90
78904;DHT22;68291;49.602;8.722;2023-04-24T12:00:06;14.10;99.90
78904;DHT22;68291;49.602;8.722;2023-04-24T12:02:40;14.20;99.90
78904;DHT22;68291;49.602;8.722;2023-04-24T12:05:26;14.30;99.90
78904;DHT22;68291;49.602;8.722;2023-04-24T12:08:01;14.30;99.90
78904;DHT22;68291;49.602;8.722;2023-04-24T12:10:54;14.40;99.90
78904;DHT22;68291;49.602;8.722;2023-04-24T12:13:50;14.50;99.90
78904;DHT22;68291;49.602;8.722;2023-04-24T12:16:21;14.70;99.90
78904;DHT22;68291;49.602;8.722;2023-04-24T12:19:10;14.90;99.90
78904;DHT22;68291;49.602;8.722;2023-04-24T12:22:05;15.10;99.90
78904;DHT22;68291;49.602;8.722;2023-04-24T12:25:04;15.30;99.90
78904;DHT22;68291;49.602;8.722;2023-04-24T12:27:54;15.40;99.90
78904;DHT22;68291;49.602;8.722;2023-04-24T12:30:31;15.50;99.90
78904;DHT22;68291;49.602;8.722;2023-04-24T12:33:05;15.60;99.90
78904;DHT22;68291;49.602;8.722;2023-04-24T12:35:53;15.60;99.90
78904;DHT22;68291;49.602;8.722;2023-04-24T12:38:32;15.50;99.90
78904;DHT22;68291;49.602;8.722;2023-04-24T12:41:36;15.50;99.90
78904;DHT22;68291;49.602;8.722;2023-04-24T12:44:16;15.40;99.90
78904;DHT22;68291;49.602;8.722;2023-04-24T12:46:56;15.30;99.90
78904;DHT22;68291;49.602;8.722;2023-04-24T12:49:42;15.20;99.90
78904;DHT22;68291;49.602;8.722;2023-04-24T12:52:15;15.10;99.90
78904;DHT22;68291;49.602;8.722;2023-04-24T12:55:02;15.00;99.90
78904;DHT22;68291;49.602;8.722;2023-04-24T12:57:46;14.90;99.90
78904;DHT22;68291;49.602;8.722;2023-04-24T13:00:27;14.80;99.90
78904;DHT22;68291;49.602;8.722;2023-04-24T13:03:07;14.80;99.90
78904;DHT22;68291;49.602;8.722;2023-04-24T13:05:47;14.80;99.90
78904;DHT22;68291;49.602;8.722;2023-04-24T13:08:28;14.80;99.90
78904;DHT22;68291;49.602;8.722;2023-04-24T13:11:12;14.80;99.90
78904;DHT22;68291;49.602;8.722;2023-04-24T13:13:52;14.90;99.90
78904;DHT22;68291;49.602;8.722;2023-04-24T13:16:27;15.10;99.90
78904;DHT22;68291;49.602;8.722;2023-04-24T13:19:13;15.20;99.90
78904;DHT22;68291;49.602;8.722;2023-04-24T13:21:52;15.30;99.90
78904;DHT22;68291;49.602;8.722;2023-04-24T13:24:24;15.30;99.90
78904;DHT22;68291;49.602;8.722;2023-04-24T13:27:15;15.40;99.90
78904;DHT22;68291;49.602;8.722;2023-04-24T13:30:30;15.30;99.90
78904;DHT22;68291;49.602;8.722;2023-04-24T13:33:04;15.30;99.90
78904;DHT22;68291;49.602;8.722;2023-04-24T13:35:49;15.20;99.90
78904;DHT22;68291;49.602;8.722;2023-04-24T13:38:31;15.20;99.90
78904;DHT22;68291;49.602;8.722;2023-04-24T13:41:17;15.10;99.90
78904;DHT22;68291;49.602;8.722;2023-04-24T13:43:53;15.10;99.90
78904;DHT22;68291;49.602;8.722;2023-04-24T13:46:35;15.10;99.90
78904;DHT22;68291;49.602;8.722;2023-04-24T13:49:22;15.20;99.90
78904;DHT22;68291;49.602;8.722;2023-04-24T13:51:55;15.20;99.90
78904;DHT22;68291;49.602;8.722;2023-04-24T13:54:43;15.20;99.90
78904;DHT22;68291;49.602;8.722;2023-04-24T13:57:29;15.20;99.90
78904;DHT22;68291;49.602;8.722;2023-04-24T14:00:16;15.30;99.90
78904;DHT22;68291;49.602;8.722;2023-04-24T14:03:17;15.20;99.90
78904;DHT22;68291;49.602;8.722;2023-04-24T14:06:13;15.20;99.90
78904;DHT22;68291;49.602;8.722;2023-04-24T14:09:09;15.20;99.90
78904;DHT22;68291;49.602;8.722;2023-04-24T14:11:55;15.10;99.90
78904;DHT22;68291;49.602;8.722;2023-04-24T14:14:36;15.00;99.90
78904;DHT22;68291;49.602;8.722;2023-04-24T14:17:13;15.00;99.90
78904;DHT22;68291;49.602;8.722;2023-04-24T14:19:47;14.90;99.90
78904;DHT22;68291;49.602;8.722;2023-04-24T14:22:36;14.90;99.90
78904;DHT22;68291;49.602;8.722;2023-04-24T14:25:09;14.80;99.90
78904;DHT22;68291;49.602;8.722;2023-04-24T14:27:52;14.80;99.90
78904;DHT22;68291;49.602;8.722;2023-04-24T14:30:48;14.80;99.90
78904;DHT22;68291;49.602;8.722;2023-04-24T14:33:31;14.80;99.90
78904;DHT22;68291;49.602;8.722;2023-04-24T14:36:45;14.80;99.90
78904;DHT22;68291;49.602;8.722;2023-04-24T14:39:22;14.90;99.90
78904;DHT22;68291;49.602;8.722;2023-04-24T14:42:07;14.90;99.90
78904;DHT22;68291;49.602;8.722;2023-04-24T14:44:38;14.90;99.90
78904;DHT22;68291;49.602;8.722;2023-04-24T14:47:18;14.90;99.90
78904;DHT22;68291;49.602;8.722;2023-04-24T14:50:00;15.00;99.90
78904;DHT22;68291;49.602;8.722;2023-04-24T14:52:51;15.10;99.90
78904;DHT22;68291;49.602;8.722;2023-04-24T14:55:35;15.20;99.90
78904;DHT22;68291;49.602;8.722;2023-04-24T14:58:21;15.40;99.90
78904;DHT22;68291;49.602;8.722;2023-04-24T15:01:11;15.50;99.90
78904;DHT22;68291;49.602;8.722;2023-04-24T15:04:01;15.60;99.90
78904;DHT22;68291;49.602;8.722;2023-04-24T15:06:54;15.60;99.90
78904;DHT22;68291;49.602;8.722;2023-04-24T15:09:35;15.70;99.90
78904;DHT22;68291;49.602;8.722;2023-04-24T15:12:21;15.70;99.90
78904;DHT22;68291;49.602;8.722;2023-04-24T15:14:53;15.70;99.90
78904;DHT22;68291;49.602;8.722;2023-04-24T15:17:46;15.70;99.90
78904;DHT22;68291;49.602;8.722;2023-04-24T15:20:33;15.70;99.90
78904;DHT22;68291;49.602;8.722;2023-04-24T15:23:14;15.80;99.90
78904;DHT22;68291;49.602;8.722;2023-04-24T15:25:54;15.80;99.90
78904;DHT22;68291;49.602;8.722;2023-04-24T15:28:30;15.80;99.90
78904;DHT22;68291;49.602;8.722;2023-04-24T15:31:14;15.80;99.90
78904;DHT22;68291;49.602;8.722;2023-04-24T15:34:11;15.80;99.90
78904;DHT22;68291;49.602;8.722;2023-04-24T15:37:08;15.80;99.90
78904;DHT22;68291;49.602;8.722;2023-04-24T15:40:04;15.80;99.90
78904;DHT22;68291;49.602;8.722;2023-04-24T15:42:51;15.70;99.90
78904;DHT22;68291;49.602;8.722;2023-04-24T15:45:40;15.80;99.90
78904;DHT22;68291;49.602;8.722;2023-04-24T15:48:12;16.10;99.90
78904;DHT22;68291;49.602;8.722;2023-04-24T15:50:58;16.60;99.90
78904;DHT22;68291;49.602;8.722;2023-04-24T15:53:37;17.30;99.90
78904;DHT22;68291;49.602;8.722;2023-04-24T15:56:10;17.90;99.90
78904;DHT22;68291;49.602;8.722;2023-04-24T15:58:58;18.50;99.90
78904;DHT22;68291;49.602;8.722;2023-04-24T16:01:38;19.10;99.90
78904;DHT22;68291;49.602;8.722;2023-04-24T16:04:15;19.70;99.90
78904;DHT22;68291;49.602;8.722;2023-04-24T16:06:48;20.20;99.90
78904;DHT22;68291;49.602;8.722;2023-04-24T16:09:34;20.50;99.90
78904;DHT22;68291;49.602;8.722;2023-04-24T16:12:09;20.40;99.90
78904;DHT22;68291;49.602;8.722;2023-04-24T16:14:42;20.20;99.90
78904;DHT22;68291;49.602;8.722;2023-04-24T16:17:28;19.80;99.90
78904;DHT22;68291;49.602;8.722;2023-04-24T16:20:01;19.60;99.90
78904;DHT22;68291;49.602;8.722;2023-04-24T16:23:00;19.50;99.90
78904;DHT22;68291;49.602;8.722;2023-04-24T16:25:44;19.20;99.90
78904;DHT22;68291;49.602;8.722;2023-04-24T16:28:34;19.00;99.90
78904;DHT22;68291;49.602;8.722;2023-04-24T16:31:20;18.70;99.90
78904;DHT22;68291;49.602;8.722;2023-04-24T16:34:14;18.30;99.90
78904;DHT22;68291;49.602;8.722;2023-04-24T16:37:12;17.90;99.90
78904;DHT22;68291;49.602;8.722;2023-04-24T16:39:55;17.60;99.90
78904;DHT22;68291;49.602;8.722;2023-04-24T16:42:43;17.40;99.90
78904;DHT22;68291;49.602;8.722;2023-04-24T16:45:34;17.20;99.90
78904;DHT22;68291;49.602;8.722;2023-04-24T16:48:27;16.90;99.90
78904;DHT22;68291;49.602;8.722;2023-04-24T16:51:09;16.70;99.90
78904;DHT22;68291;49.602;8.722;2023-04-24T16:53:51;16.60;99.90
78904;DHT22;68291;49.602;8.722;2023-04-24T16:56:37;16.50;99.90
78904;DHT22;68291;49.602;8.722;2023-04-24T16:59:15;16.40;99.90
78904;DHT22;68291;49.602;8.722;2023-04-24T17:01:58;16.70;99.90
78904;DHT22;68291;49.602;8.722;2023-04-24T17:04:51;17.00;99.90
78904;DHT22;68291;49.602;8.722;2023-04-24T17:07:28;17.40;99.90
78904;DHT22;68291;49.602;8.722;2023-04-24T17:10:20;17.60;99.90
78904;DHT22;68291;49.602;8.722;2023-04-24T17:12:50;17.60;99.90
78904;DHT22;68291;49.602;8.722;2023-04-24T17:15:49;17.60;99.90
78904;DHT22;68291;49.602;8.722;2023-04-24T17:18:36;17.50;99.90
78904;DHT22;68291;49.602;8.722;2023-04-24T17:21:44;17.30;99.90
78904;DHT22;68291;49.602;8.722;2023-04-24T17:24:28;17.20;99.90
78904;DHT22;68291;49.602;8.722;2023-04-24T17:27:11;17.20;99.90
78904;DHT22;68291;49.602;8.722;2023-04-24T17:29:42;17.10;99.90